< < Back
Terminal Aerodrome Forecast


Current Version              Previous Versions:   1  2  3  4  5  6  7  8  9  

Terminal Aerodrome Forecast

404
FTUS42 KCHS 042336
TAFCHS
TAF
KCHS 042336Z 0500/0524 VRB03KT P6SM BKN150
     FM050900 03005KT P6SM FEW030 BKN100
     FM051300 06008KT P6SM SCT035
     FM052000 12009KT P6SM SCT040=



Latest METAR

367
SAUS80 KWBC 050300 RRA
MTRCHS
METAR KCHS 050256Z 00000KT 10SM SCT250 24/21 A3001 RMK AO2 SLP162
T02390211 51017


USA.gov is the U.S. government's official web portal to all federal, state and local government web resources and services.